Time;durP1;ratioP1;P1;durP2;ratioP2;P2;SDS_P1;SDS_P2;PMS_P1;PMS_P2;Temp;Humidity;BMP_temperature;BMP_pressure;BME280_temperature;BME280_humidity;BME280_pressure;Samples;Min_cycle;Max_cycle;Signal;HPM_P1;HPM_P2
2024/03/24 00:01:03;;;;;;;13.97;9.33;;;;;;;;;;10436183;28;20517;-84
2024/03/24 00:06:06;;;;;;;12.30;8.53;;;;;;;;;;10437968;28;20759;-82
2024/03/24 00:11:09;;;;;;;12.98;8.40;;;;;;;;;;10441346;28;20407;-83
2024/03/24 00:16:12;;;;;;;13.45;8.50;;;;;;;;;;10439809;28;20412;-83
2024/03/24 00:21:14;;;;;;;13.32;8.57;;;;;;;;;;10435552;28;20831;-83
2024/03/24 00:26:17;;;;;;;13.33;8.87;;;;;;;;;;10428201;28;20454;-83
2024/03/24 00:31:20;;;;;;;12.33;8.30;;;;;;;;;;10430264;28;20452;-83
2024/03/24 00:36:22;;;;;;;13.70;8.77;;;;;;;;;;10432299;28;20400;-82
2024/03/24 00:41:25;;;;;;;14.32;8.18;;;;;;;;;;10435046;28;20447;-83
2024/03/24 00:46:27;;;;;;;12.88;8.63;;;;;;;;;;10426998;28;20419;-83
2024/03/24 00:51:30;;;;;;;12.00;8.60;;;;;;;;;;10436023;28;20403;-83
2024/03/24 00:56:33;;;;;;;13.27;8.45;;;;;;;;;;10429593;28;20409;-84
2024/03/24 01:01:35;;;;;;;13.63;7.97;;;;;;;;;;10437678;28;20473;-83
2024/03/24 01:06:38;;;;;;;12.15;8.15;;;;;;;;;;10434133;28;20407;-83
2024/03/24 01:11:42;;;;;;;11.55;8.05;;;;;;;;;;10440812;28;20400;-83
2024/03/24 01:16:44;;;;;;;9.77;6.30;;;;;;;;;;10445859;28;20949;-83
2024/03/24 01:21:47;;;;;;;7.97;5.50;;;;;;;;;;10443786;28;20506;-83
2024/03/24 01:26:51;;;;;;;8.37;5.07;;;;;;;;;;10446429;28;20457;-83
2024/03/24 01:31:53;;;;;;;5.40;3.67;;;;;;;;;;10445148;28;20408;-83
2024/03/24 01:36:56;;;;;;;3.13;2.10;;;;;;;;;;10438378;28;20409;-83
2024/03/24 01:42:00;;;;;;;2.58;1.80;;;;;;;;;;10441690;28;20417;-83
2024/03/24 01:47:03;;;;;;;2.00;1.17;;;;;;;;;;10443857;28;20411;-83
2024/03/24 01:52:07;;;;;;;1.80;1.00;;;;;;;;;;10449784;28;20407;-82
2024/03/24 01:57:11;;;;;;;1.30;0.90;;;;;;;;;;10441360;28;20467;-83
2024/03/24 02:02:13;;;;;;;1.13;1.02;;;;;;;;;;10442208;28;20423;-82
2024/03/24 02:07:16;;;;;;;1.67;1.00;;;;;;;;;;10448006;28;20468;-83
2024/03/24 02:12:20;;;;;;;1.80;1.03;;;;;;;;;;10436750;28;20774;-83
2024/03/24 02:17:22;;;;;;;3.10;1.13;;;;;;;;;;10434683;28;20491;-83
2024/03/24 02:22:25;;;;;;;1.80;1.20;;;;;;;;;;10437279;28;20440;-83
2024/03/24 02:27:29;;;;;;;1.60;1.30;;;;;;;;;;10444221;28;20471;-83
2024/03/24 02:32:31;;;;;;;1.87;1.17;;;;;;;;;;10446054;28;20417;-83
2024/03/24 02:37:34;;;;;;;2.10;1.23;;;;;;;;;;10442363;28;20430;-83
2024/03/24 02:42:38;;;;;;;3.00;1.27;;;;;;;;;;10450809;28;20457;-82
2024/03/24 02:47:41;;;;;;;1.80;1.08;;;;;;;;;;10441386;28;20454;-83
2024/03/24 02:52:44;;;;;;;1.50;1.10;;;;;;;;;;10439253;28;20465;-83
2024/03/24 02:57:48;;;;;;;2.20;1.02;;;;;;;;;;10442589;28;20404;-82
2024/03/24 03:02:50;;;;;;;1.75;0.98;;;;;;;;;;10439582;28;20423;-82
2024/03/24 03:07:52;;;;;;;1.00;0.80;;;;;;;;;;10444377;28;20475;-83
2024/03/24 03:12:56;;;;;;;1.95;1.13;;;;;;;;;;10441048;28;21073;-82
2024/03/24 03:17:58;;;;;;;1.80;1.13;;;;;;;;;;10445263;28;20423;-82
2024/03/24 03:23:00;;;;;;;2.47;1.30;;;;;;;;;;10444988;28;20424;-83
2024/03/24 03:28:05;;;;;;;1.50;1.00;;;;;;;;;;10427916;28;20577;-83
2024/03/24 03:33:07;;;;;;;2.22;1.17;;;;;;;;;;10423159;28;20475;-83
2024/03/24 03:38:09;;;;;;;1.95;1.35;;;;;;;;;;10436784;28;20459;-83
2024/03/24 03:43:16;;;;;;;2.50;1.48;;;;;;;;;;10436227;28;20456;-83
2024/03/24 03:48:18;;;;;;;3.33;1.73;;;;;;;;;;10441659;28;20409;-82
2024/03/24 03:53:24;;;;;;;3.40;1.30;;;;;;;;;;10440810;28;20416;-83
2024/03/24 03:58:28;;;;;;;2.10;1.30;;;;;;;;;;10440864;28;20515;-83
2024/03/24 04:03:32;;;;;;;1.53;1.17;;;;;;;;;;10438095;28;20429;-83
2024/03/24 04:08:34;;;;;;;1.75;1.20;;;;;;;;;;10444251;28;20807;-83
2024/03/24 04:13:38;;;;;;;2.15;1.35;;;;;;;;;;10439997;28;20405;-83
2024/03/24 04:18:40;;;;;;;1.90;1.00;;;;;;;;;;10440455;28;20416;-83
2024/03/24 04:23:42;;;;;;;1.73;1.17;;;;;;;;;;10439663;28;20841;-82
2024/03/24 04:28:45;;;;;;;2.30;1.10;;;;;;;;;;10437523;28;20480;-83
2024/03/24 04:33:48;;;;;;;2.95;1.40;;;;;;;;;;10426548;28;20395;-83
2024/03/24 04:38:50;;;;;;;2.53;1.70;;;;;;;;;;10424826;28;20441;-83
2024/03/24 04:43:54;;;;;;;2.50;1.40;;;;;;;;;;10433626;28;20976;-83
2024/03/24 04:48:56;;;;;;;1.10;0.95;;;;;;;;;;10443081;28;20434;-82
2024/03/24 04:53:58;;;;;;;1.65;1.00;;;;;;;;;;10438645;28;20403;-82
2024/03/24 04:59:02;;;;;;;1.10;0.60;;;;;;;;;;10434901;28;20438;-82
2024/03/24 05:04:05;;;;;;;0.90;0.80;;;;;;;;;;10438897;28;20419;-83
2024/03/24 05:09:08;;;;;;;1.08;0.57;;;;;;;;;;10440483;28;20465;-83
2024/03/24 05:14:11;;;;;;;1.07;0.50;;;;;;;;;;10439642;28;20402;-83
2024/03/24 05:19:14;;;;;;;2.70;0.80;;;;;;;;;;10437184;28;20459;-83
2024/03/24 05:24:16;;;;;;;0.87;0.67;;;;;;;;;;10434006;28;20526;-83
2024/03/24 05:29:20;;;;;;;1.80;0.90;;;;;;;;;;10432339;28;20503;-83
2024/03/24 05:34:22;;;;;;;2.08;0.50;;;;;;;;;;10436898;28;20459;-83
2024/03/24 05:39:25;;;;;;;0.75;0.70;;;;;;;;;;10433333;28;20401;-83
2024/03/24 05:44:29;;;;;;;0.90;0.68;;;;;;;;;;10437620;28;20498;-82
2024/03/24 05:49:31;;;;;;;0.80;0.30;;;;;;;;;;10436152;28;20404;-82
2024/03/24 05:54:34;;;;;;;1.43;0.60;;;;;;;;;;10438269;28;20469;-83
2024/03/24 05:59:37;;;;;;;0.73;0.40;;;;;;;;;;10439255;28;20408;-82
2024/03/24 06:04:39;;;;;;;0.80;0.30;;;;;;;;;;10443711;28;20488;-82
2024/03/24 06:09:42;;;;;;;1.60;0.50;;;;;;;;;;10445711;28;20404;-82
2024/03/24 06:14:45;;;;;;;0.80;0.52;;;;;;;;;;10444131;28;20767;-82
2024/03/24 06:19:47;;;;;;;2.00;0.40;;;;;;;;;;10446606;28;20503;-82
2024/03/24 06:24:50;;;;;;;0.88;0.30;;;;;;;;;;10442314;28;20514;-82
2024/03/24 06:29:53;;;;;;;1.50;0.30;;;;;;;;;;10427661;28;20445;-82
2024/03/24 06:34:55;;;;;;;0.63;0.40;;;;;;;;;;10427376;28;20893;-82
2024/03/24 06:39:58;;;;;;;1.33;0.30;;;;;;;;;;10428534;28;20411;-82
2024/03/24 06:45:08;;;;;;;1.05;0.50;;;;;;;;;;10434627;28;20517;-83
2024/03/24 06:50:10;;;;;;;1.70;0.55;;;;;;;;;;10442903;28;20416;-82
2024/03/24 06:55:12;;;;;;;1.75;0.70;;;;;;;;;;10434368;28;20442;-82
2024/03/24 07:00:53;;;;;;;0.50;0.20;;;;;;;;;;10438852;28;20477;-82
2024/03/24 07:05:55;;;;;;;1.00;0.40;;;;;;;;;;10436590;28;20456;-82
2024/03/24 07:10:57;;;;;;;0.20;0.20;;;;;;;;;;10437075;28;20822;-83
2024/03/24 07:16:01;;;;;;;1.02;0.40;;;;;;;;;;10443111;28;20410;-83
2024/03/24 07:21:05;;;;;;;0.27;0.20;;;;;;;;;;10437594;28;20412;-83
2024/03/24 07:26:07;;;;;;;0.55;0.22;;;;;;;;;;10436290;28;20465;-83
2024/03/24 07:31:11;;;;;;;0.68;0.40;;;;;;;;;;10430956;28;20420;-83
2024/03/24 07:36:13;;;;;;;0.60;0.35;;;;;;;;;;10433315;28;20437;-82
2024/03/24 07:41:15;;;;;;;1.90;0.20;;;;;;;;;;10442351;28;20465;-82
2024/03/24 07:46:19;;;;;;;0.70;0.13;;;;;;;;;;10430061;28;20777;-82
2024/03/24 07:51:21;;;;;;;0.60;0.20;;;;;;;;;;10427207;28;20408;-82
2024/03/24 07:56:23;;;;;;;0.77;0.22;;;;;;;;;;10432655;28;20811;-82
2024/03/24 08:01:27;;;;;;;0.20;0.20;;;;;;;;;;10431872;28;20416;-82
2024/03/24 08:06:29;;;;;;;0.45;0.20;;;;;;;;;;10433237;28;20512;-83
2024/03/24 08:11:31;;;;;;;0.57;0.20;;;;;;;;;;10434489;28;20404;-83
2024/03/24 08:16:35;;;;;;;0.55;0.32;;;;;;;;;;10446147;28;20487;-82
2024/03/24 08:21:37;;;;;;;0.30;0.20;;;;;;;;;;10425254;28;20417;-83
2024/03/24 08:26:39;;;;;;;1.20;0.20;;;;;;;;;;10428324;28;20451;-82
2024/03/24 08:31:43;;;;;;;0.43;0.30;;;;;;;;;;10438764;28;20439;-83
2024/03/24 08:36:45;;;;;;;1.10;0.30;;;;;;;;;;10438474;28;20412;-82
2024/03/24 08:41:47;;;;;;;0.30;0.20;;;;;;;;;;10435009;28;20411;-83
2024/03/24 08:46:51;;;;;;;0.40;0.23;;;;;;;;;;10435548;28;21063;-83
2024/03/24 08:51:53;;;;;;;0.50;0.30;;;;;;;;;;10432694;28;20431;-83
2024/03/24 08:56:55;;;;;;;0.57;0.40;;;;;;;;;;10433593;28;20835;-82
2024/03/24 09:01:59;;;;;;;0.60;0.47;;;;;;;;;;10436335;28;20495;-82
2024/03/24 09:07:01;;;;;;;1.50;0.30;;;;;;;;;;10436379;28;21088;-81
2024/03/24 09:12:04;;;;;;;0.82;0.38;;;;;;;;;;10439570;28;21440;-81
2024/03/24 09:17:08;;;;;;;0.70;0.30;;;;;;;;;;10435055;28;20413;-83
2024/03/24 09:22:10;;;;;;;0.40;0.40;;;;;;;;;;10436340;28;20470;-83
2024/03/24 09:27:13;;;;;;;0.60;0.33;;;;;;;;;;10439715;28;20422;-83
2024/03/24 09:32:16;;;;;;;0.37;0.37;;;;;;;;;;10440208;28;20395;-81
2024/03/24 09:37:18;;;;;;;0.50;0.40;;;;;;;;;;10444631;28;20484;-84
2024/03/24 09:42:21;;;;;;;0.47;0.40;;;;;;;;;;10450661;28;20469;-82
2024/03/24 09:47:26;;;;;;;0.80;0.50;;;;;;;;;;10443086;28;20447;-82
2024/03/24 09:52:30;;;;;;;0.80;0.45;;;;;;;;;;10443162;28;20433;-83
2024/03/24 09:57:36;;;;;;;0.68;0.60;;;;;;;;;;10441224;28;20508;-82
2024/03/24 10:02:40;;;;;;;0.70;0.60;;;;;;;;;;10437926;28;20439;-82
2024/03/24 10:07:43;;;;;;;1.45;0.60;;;;;;;;;;10440625;28;20524;-82
2024/03/24 10:12:55;;;;;;;0.67;0.60;;;;;;;;;;10438130;28;20533;-81
2024/03/24 10:18:07;;;;;;;1.10;0.77;;;;;;;;;;10439078;28;20436;-81
2024/03/24 10:23:09;;;;;;;1.30;0.70;;;;;;;;;;10437943;28;20443;-82
2024/03/24 10:28:13;;;;;;;1.13;0.75;;;;;;;;;;10442885;28;20513;-83
2024/03/24 10:33:17;;;;;;;0.80;0.80;;;;;;;;;;10432919;28;20511;-81
2024/03/24 10:38:19;;;;;;;0.70;0.70;;;;;;;;;;10429228;28;20455;-82
2024/03/24 10:43:22;;;;;;;1.38;0.75;;;;;;;;;;10435279;28;20451;-82
2024/03/24 10:48:30;;;;;;;1.67;0.80;;;;;;;;;;10433230;28;20459;-82
2024/03/24 10:53:32;;;;;;;1.52;0.88;;;;;;;;;;10442480;28;20493;-82
2024/03/24 10:58:35;;;;;;;1.20;0.80;;;;;;;;;;10435746;28;20438;-84
2024/03/24 11:03:44;;;;;;;1.10;0.77;;;;;;;;;;10441011;28;20478;-83
2024/03/24 11:08:46;;;;;;;0.70;0.70;;;;;;;;;;10434684;28;20447;-83
2024/03/24 11:13:50;;;;;;;24.67;15.70;;;;;;;;;;10444013;28;20477;-83
2024/03/24 11:18:54;;;;;;;1.42;0.93;;;;;;;;;;10439063;28;20447;-82
2024/03/24 11:23:56;;;;;;;1.42;0.98;;;;;;;;;;10435015;28;20998;-83
2024/03/24 11:28:59;;;;;;;3.08;0.85;;;;;;;;;;10433941;28;20967;-82
2024/03/24 11:34:07;;;;;;;1.10;0.90;;;;;;;;;;10434440;28;20462;-83
2024/03/24 11:39:11;;;;;;;3.17;1.00;;;;;;;;;;10437385;28;20430;-82
2024/03/24 11:44:14;;;;;;;2.97;1.10;;;;;;;;;;10437108;28;20545;-83
2024/03/24 11:49:17;;;;;;;1.63;0.90;;;;;;;;;;10435104;28;20413;-83
2024/03/24 11:54:19;;;;;;;1.23;0.90;;;;;;;;;;10436138;28;20865;-83
2024/03/24 11:59:22;;;;;;;1.87;1.00;;;;;;;;;;10441028;28;20498;-82
2024/03/24 12:04:27;;;;;;;1.30;0.95;;;;;;;;;;10437811;28;20501;-83
2024/03/24 12:09:29;;;;;;;2.00;1.08;;;;;;;;;;10435264;28;21018;-84
2024/03/24 12:14:32;;;;;;;1.47;0.87;;;;;;;;;;10435336;28;20411;-81
2024/03/24 12:19:36;;;;;;;1.15;0.82;;;;;;;;;;10436570;28;20408;-83
2024/03/24 12:24:38;;;;;;;2.78;0.80;;;;;;;;;;10435271;28;20857;-83
2024/03/24 12:29:40;;;;;;;1.30;0.73;;;;;;;;;;10432339;28;20819;-83
2024/03/24 12:34:46;;;;;;;2.80;0.80;;;;;;;;;;10436313;28;20487;-83
2024/03/24 12:39:49;;;;;;;1.90;1.10;;;;;;;;;;10429118;28;20402;-83
2024/03/24 12:44:51;;;;;;;1.50;0.90;;;;;;;;;;10431719;28;20412;-83
2024/03/24 12:49:55;;;;;;;1.27;0.88;;;;;;;;;;10435762;28;20412;-83
2024/03/24 12:54:57;;;;;;;1.10;1.00;;;;;;;;;;10429836;28;20408;-83
2024/03/24 13:00:04;;;;;;;1.17;0.80;;;;;;;;;;10434048;28;20399;-83
2024/03/24 13:05:09;;;;;;;1.03;0.80;;;;;;;;;;10433548;28;20479;-83
2024/03/24 13:10:13;;;;;;;1.10;0.88;;;;;;;;;;10440853;28;20431;-83
2024/03/24 13:15:15;;;;;;;1.08;0.90;;;;;;;;;;10437683;28;20868;-83
2024/03/24 13:20:20;;;;;;;1.00;0.90;;;;;;;;;;10437413;28;20407;-83
2024/03/24 13:25:22;;;;;;;1.65;0.90;;;;;;;;;;10438299;28;20451;-83
2024/03/24 13:30:25;;;;;;;1.80;0.80;;;;;;;;;;10442951;28;20403;-81
2024/03/24 13:35:29;;;;;;;1.20;0.90;;;;;;;;;;10434115;28;20483;-83
2024/03/24 13:40:37;;;;;;;1.83;0.98;;;;;;;;;;10441249;28;20411;-83
2024/03/24 13:45:53;;;;;;;1.50;0.90;;;;;;;;;;10440048;28;20892;-83
2024/03/24 13:50:57;;;;;;;2.10;1.10;;;;;;;;;;10438969;28;20504;-83
2024/03/24 13:55:59;;;;;;;1.38;0.90;;;;;;;;;;10439758;28;20783;-83
2024/03/24 14:01:01;;;;;;;1.83;1.08;;;;;;;;;;10439994;28;20472;-81
2024/03/24 14:06:05;;;;;;;1.40;1.17;;;;;;;;;;10443968;28;20462;-90
2024/03/24 14:11:08;;;;;;;1.30;0.90;;;;;;;;;;10441073;28;20403;-80
2024/03/24 14:16:28;;;;;;;2.33;0.98;;;;;;;;;;10438845;28;20535;-81
2024/03/24 14:21:43;;;;;;;3.08;1.23;;;;;;;;;;10435195;28;20473;-81
2024/03/24 14:26:46;;;;;;;1.60;1.20;;;;;;;;;;10427537;28;20475;-81
2024/03/24 14:31:48;;;;;;;1.57;0.90;;;;;;;;;;10433666;28;20474;-81
2024/03/24 14:37:03;;;;;;;1.80;1.10;;;;;;;;;;10427346;28;20980;-80
2024/03/24 14:42:15;;;;;;;3.92;1.38;;;;;;;;;;10430599;28;20916;-81
2024/03/24 14:47:39;;;;;;;2.45;1.30;;;;;;;;;;10435202;28;20512;-79
2024/03/24 14:52:42;;;;;;;1.95;1.30;;;;;;;;;;10428927;28;20447;-81
2024/03/24 14:57:45;;;;;;;1.98;1.15;;;;;;;;;;10436497;28;20451;-83
2024/03/24 15:02:48;;;;;;;3.10;1.63;;;;;;;;;;10432214;28;20489;-83
2024/03/24 15:07:51;;;;;;;2.95;1.98;;;;;;;;;;10436489;28;20879;-84
2024/03/24 15:12:54;;;;;;;1.42;1.25;;;;;;;;;;10428067;28;20447;-81
2024/03/24 15:17:57;;;;;;;2.13;1.58;;;;;;;;;;10434415;28;21056;-79
2024/03/24 15:23:00;;;;;;;2.60;1.23;;;;;;;;;;10433850;28;20523;-78
2024/03/24 15:28:03;;;;;;;2.10;1.25;;;;;;;;;;10430669;28;20443;-79
2024/03/24 15:33:05;;;;;;;5.25;2.55;;;;;;;;;;10430385;28;20941;-81
2024/03/24 15:38:09;;;;;;;1.97;0.93;;;;;;;;;;10426735;28;20526;-78
2024/03/24 15:43:14;;;;;;;1.90;1.30;;;;;;;;;;10437135;28;20505;-88
2024/03/24 15:48:16;;;;;;;3.22;1.50;;;;;;;;;;10447718;28;20918;-89
2024/03/24 15:53:21;;;;;;;2.23;1.20;;;;;;;;;;10451778;28;20465;-91
2024/03/24 15:58:36;;;;;;;2.30;1.10;;;;;;;;;;10437674;28;20532;-90
2024/03/24 16:03:39;;;;;;;1.30;0.70;;;;;;;;;;10447230;28;20415;-88
2024/03/24 16:08:44;;;;;;;0.82;0.82;;;;;;;;;;10439683;28;20455;-79
2024/03/24 16:13:54;;;;;;;0.90;0.70;;;;;;;;;;10420877;28;20449;-79
2024/03/24 16:18:57;;;;;;;0.90;0.90;;;;;;;;;;10419528;28;20828;-80
2024/03/24 16:24:00;;;;;;;2.85;0.80;;;;;;;;;;10419497;28;20515;-79
2024/03/24 16:29:02;;;;;;;1.48;0.73;;;;;;;;;;10430182;28;20536;-78
2024/03/24 16:34:05;;;;;;;1.08;0.88;;;;;;;;;;10427994;28;20447;-79
2024/03/24 16:39:09;;;;;;;2.63;1.20;;;;;;;;;;10430584;28;21121;-80
2024/03/24 16:44:11;;;;;;;2.77;0.93;;;;;;;;;;10428002;28;20463;-77
2024/03/24 16:49:14;;;;;;;1.75;0.98;;;;;;;;;;10430569;28;20505;-77
2024/03/24 16:54:18;;;;;;;2.77;0.90;;;;;;;;;;10426335;28;20575;-78
2024/03/24 16:59:21;;;;;;;2.50;1.10;;;;;;;;;;10426863;28;20451;-79
2024/03/24 17:04:24;;;;;;;1.90;1.00;;;;;;;;;;10421450;28;20455;-80
2024/03/24 17:09:27;;;;;;;1.25;1.00;;;;;;;;;;10430274;28;20545;-81
2024/03/24 17:14:31;;;;;;;1.98;1.40;;;;;;;;;;10434822;28;20926;-81
2024/03/24 17:19:35;;;;;;;2.10;1.33;;;;;;;;;;10428245;28;20924;-81
2024/03/24 17:24:39;;;;;;;2.55;1.80;;;;;;;;;;10431111;28;20499;-82
2024/03/24 17:29:43;;;;;;;3.28;1.90;;;;;;;;;;10430640;28;20520;-82
2024/03/24 17:34:47;;;;;;;5.05;2.67;;;;;;;;;;10433863;28;20457;-81
2024/03/24 17:39:51;;;;;;;7.00;3.30;;;;;;;;;;10423986;28;20986;-84
2024/03/24 17:44:55;;;;;;;4.85;2.88;;;;;;;;;;10432654;28;20984;-81
2024/03/24 17:49:57;;;;;;;4.22;2.35;;;;;;;;;;10427234;28;20435;-81
2024/03/24 17:55:03;;;;;;;4.63;2.80;;;;;;;;;;10434714;28;20443;-81
2024/03/24 18:00:08;;;;;;;4.07;2.72;;;;;;;;;;10447704;23;21046;-79
2024/03/24 18:05:11;;;;;;;5.93;3.17;;;;;;;;;;10458388;28;20438;-82
2024/03/24 18:10:23;;;;;;;4.17;3.17;;;;;;;;;;10461448;28;21200;-82
2024/03/24 18:15:26;;;;;;;4.68;3.30;;;;;;;;;;10454424;28;20508;-81
2024/03/24 18:20:28;;;;;;;4.43;3.00;;;;;;;;;;10464496;28;20477;-81
2024/03/24 18:25:32;;;;;;;3.78;2.50;;;;;;;;;;10459414;28;20425;-81
2024/03/24 18:30:35;;;;;;;5.23;2.40;;;;;;;;;;10455419;28;20436;-81
2024/03/24 18:35:37;;;;;;;11.48;2.80;;;;;;;;;;10463855;28;20445;-80
2024/03/24 18:40:41;;;;;;;4.53;3.10;;;;;;;;;;10461928;28;20912;-80
2024/03/24 18:45:44;;;;;;;3.17;2.13;;;;;;;;;;10468074;28;20410;-80
2024/03/24 18:50:47;;;;;;;2.57;2.30;;;;;;;;;;10461757;28;20831;-80
2024/03/24 18:55:50;;;;;;;2.55;2.10;;;;;;;;;;10476528;28;20554;-80
2024/03/24 19:00:55;;;;;;;10.63;2.70;;;;;;;;;;10468288;28;21032;-80
2024/03/24 19:05:57;;;;;;;3.42;2.50;;;;;;;;;;10476065;28;20467;-77
2024/03/24 19:11:03;;;;;;;3.45;3.00;;;;;;;;;;10474415;28;20449;-81
2024/03/24 19:16:08;;;;;;;4.55;3.55;;;;;;;;;;10471085;28;20840;-79
2024/03/24 19:21:12;;;;;;;4.28;3.15;;;;;;;;;;10457586;22;21085;-80
2024/03/24 19:26:16;;;;;;;3.67;2.60;;;;;;;;;;10438066;28;20466;-80
2024/03/24 19:31:26;;;;;;;7.47;4.68;;;;;;;;;;10434035;28;20928;-79
2024/03/24 19:36:28;;;;;;;4.93;3.35;;;;;;;;;;10437384;28;20807;-80
2024/03/24 19:41:33;;;;;;;7.28;5.28;;;;;;;;;;10436714;28;21086;-79
2024/03/24 19:46:39;;;;;;;6.00;4.03;;;;;;;;;;10432569;28;20505;-79
2024/03/24 19:51:42;;;;;;;4.82;3.85;;;;;;;;;;10432255;28;20498;-79
2024/03/24 19:56:47;;;;;;;4.90;3.70;;;;;;;;;;10435673;28;20544;-79
2024/03/24 20:01:49;;;;;;;6.28;4.43;;;;;;;;;;10434571;28;20465;-79
2024/03/24 20:06:51;;;;;;;5.43;4.22;;;;;;;;;;10436817;28;20451;-79
2024/03/24 20:11:58;;;;;;;7.60;5.70;;;;;;;;;;10436365;28;20447;-79
2024/03/24 20:17:02;;;;;;;12.73;8.98;;;;;;;;;;10435653;28;21166;-79
2024/03/24 20:22:04;;;;;;;53.23;29.87;;;;;;;;;;10436814;28;20466;-79
2024/03/24 20:27:10;;;;;;;31.50;16.63;;;;;;;;;;10436462;28;20447;-79
2024/03/24 20:32:14;;;;;;;7.72;4.60;;;;;;;;;;10435936;28;20954;-80
2024/03/24 20:37:18;;;;;;;11.30;7.20;;;;;;;;;;10434803;28;20447;-79
2024/03/24 20:42:25;;;;;;;8.50;6.20;;;;;;;;;;10435092;28;20443;-79
2024/03/24 20:47:28;;;;;;;19.57;11.10;;;;;;;;;;10430833;28;20539;-79
2024/03/24 20:52:32;;;;;;;10.83;6.83;;;;;;;;;;10436258;28;20881;-79
2024/03/24 20:57:37;;;;;;;13.23;8.63;;;;;;;;;;10430263;28;20447;-80
2024/03/24 21:02:40;;;;;;;11.57;7.63;;;;;;;;;;10433892;28;20451;-79
2024/03/24 21:07:44;;;;;;;26.57;15.93;;;;;;;;;;10432456;28;20521;-80
2024/03/24 21:12:50;;;;;;;13.95;9.13;;;;;;;;;;10434071;28;20439;-78
2024/03/24 21:17:53;;;;;;;12.10;8.70;;;;;;;;;;10435703;28;21018;-80
2024/03/24 21:22:57;;;;;;;10.43;7.53;;;;;;;;;;10434701;28;21016;-79
2024/03/24 21:28:01;;;;;;;12.15;8.10;;;;;;;;;;10439421;28;20520;-78
2024/03/24 21:33:04;;;;;;;10.03;7.20;;;;;;;;;;10442805;28;20488;-79
2024/03/24 21:43:30;;;;;;;14.95;9.48;;;;;;;;;;10441799;28;20994;-80
2024/03/24 21:48:33;;;;;;;10.47;7.30;;;;;;;;;;10441162;28;20497;-79
2024/03/24 21:53:35;;;;;;;10.87;8.00;;;;;;;;;;10441025;28;20501;-79
2024/03/24 21:58:40;;;;;;;11.70;7.53;;;;;;;;;;10437122;28;20921;-81
2024/03/24 22:03:43;;;;;;;10.73;7.50;;;;;;;;;;10446306;28;20513;-78
2024/03/24 22:08:45;;;;;;;14.70;9.30;;;;;;;;;;10441659;28;20974;-79
2024/03/24 22:13:49;;;;;;;27.92;12.95;;;;;;;;;;10447147;28;20921;-79
2024/03/24 22:18:52;;;;;;;17.77;9.30;;;;;;;;;;10446489;28;20524;-79
2024/03/24 22:23:54;;;;;;;19.95;10.85;;;;;;;;;;10442859;28;20757;-79
2024/03/24 22:29:04;;;;;;;21.53;10.07;;;;;;;;;;10442443;28;20620;-79
2024/03/24 22:34:06;;;;;;;23.13;13.35;;;;;;;;;;10444103;28;20448;-79
2024/03/24 22:39:09;;;;;;;12.05;8.15;;;;;;;;;;10446879;28;20521;-80
2024/03/24 22:44:13;;;;;;;14.02;8.32;;;;;;;;;;10447884;28;20962;-79
2024/03/24 22:49:15;;;;;;;12.02;7.07;;;;;;;;;;10447127;28;20516;-79
2024/03/24 22:54:18;;;;;;;11.55;7.15;;;;;;;;;;10446528;28;20798;-79
2024/03/24 22:59:21;;;;;;;11.63;7.83;;;;;;;;;;10444797;28;20450;-81
2024/03/24 23:04:24;;;;;;;13.90;8.35;;;;;;;;;;10445341;28;20910;-81
2024/03/24 23:09:26;;;;;;;12.25;8.13;;;;;;;;;;10447221;28;20785;-81
2024/03/24 23:14:29;;;;;;;19.02;11.00;;;;;;;;;;10446728;28;20469;-80
2024/03/24 23:19:32;;;;;;;15.13;8.30;;;;;;;;;;10443574;28;20451;-80
2024/03/24 23:24:35;;;;;;;24.10;12.07;;;;;;;;;;10448576;28;21161;-81
2024/03/24 23:29:38;;;;;;;12.73;7.93;;;;;;;;;;10448508;28;20447;-81
2024/03/24 23:34:42;;;;;;;13.52;8.18;;;;;;;;;;10448417;28;20415;-81
2024/03/24 23:39:45;;;;;;;12.27;7.77;;;;;;;;;;10448341;28;20403;-80
2024/03/24 23:44:48;;;;;;;11.20;7.18;;;;;;;;;;10446362;28;20969;-80
2024/03/24 23:49:51;;;;;;;16.73;9.15;;;;;;;;;;10446421;28;20455;-80
2024/03/24 23:54:53;;;;;;;19.33;11.30;;;;;;;;;;10445854;28;20403;-80
2024/03/24 23:59:57;;;;;;;18.87;10.13;;;;;;;;;;10448033;28;20408;-80
